Time;durP1;ratioP1;P1;durP2;ratioP2;P2;SDS_P1;SDS_P2;PMS_P1;PMS_P2;Temp;Humidity;BMP_temperature;BMP_pressure;BME280_temperature;BME280_humidity;BME280_pressure;Samples;Min_cycle;Max_cycle;Signal;HPM_P1;HPM_P2
2022/10/07 00:01:29;;;;;;;10.90;4.53;;;;;8.50;97498.00;;;;8359534;28;20330;-68
2022/10/07 00:05:33;;;;;;;37.67;5.63;;;;;8.40;97496.00;;;;8359993;28;20221;-67
2022/10/07 00:10:07;;;;;;;14.13;4.97;;;;;8.30;97493.00;;;;8366737;28;20216;-67
2022/10/07 00:14:12;;;;;;;15.47;5.50;;;;;8.30;97492.00;;;;8366581;28;20297;-68
2022/10/07 00:18:15;;;;;;;7.67;4.67;;;;;8.30;97494.00;;;;8366854;28;20220;-67
2022/10/07 00:22:53;;;;;;;7.67;4.30;;;;;8.30;97487.00;;;;8366232;28;20274;-68
2022/10/07 00:26:56;;;;;;;16.97;5.27;;;;;8.30;97481.00;;;;8365350;28;20217;-68
2022/10/07 00:31:35;;;;;;;7.30;4.50;;;;;8.30;97475.00;;;;8366903;28;20227;-67
2022/10/07 00:35:38;;;;;;;9.23;5.40;;;;;8.30;97469.00;;;;8365408;28;20228;-67
2022/10/07 00:39:41;;;;;;;15.23;4.80;;;;;8.30;97462.00;;;;8366632;28;20285;-68
2022/10/07 00:43:44;;;;;;;8.70;4.97;;;;;8.30;97461.00;;;;8365885;28;20674;-67
2022/10/07 00:47:50;;;;;;;10.03;5.40;;;;;8.30;97458.00;;;;8365506;28;20581;-67
2022/10/07 00:51:54;;;;;;;7.33;4.87;;;;;8.40;97439.00;;;;8365574;28;20220;-68
2022/10/07 00:56:28;;;;;;;19.27;5.80;;;;;8.50;97446.00;;;;8364527;28;20565;-68
2022/10/07 01:00:32;;;;;;;6.87;4.67;;;;;8.60;97444.00;;;;8364799;28;20223;-68
2022/10/07 01:04:37;;;;;;;10.33;5.33;;;;;8.60;97437.00;;;;8365489;28;20312;-68
2022/10/07 01:08:47;;;;;;;12.03;5.13;;;;;8.60;97437.00;;;;8364431;28;20228;-67
2022/10/07 01:13:04;;;;;;;11.33;5.37;;;;;8.50;97427.00;;;;8365144;28;20221;-67
2022/10/07 01:17:27;;;;;;;8.30;4.80;;;;;8.40;97420.00;;;;8363870;28;20263;-67
2022/10/07 01:21:39;;;;;;;9.07;5.07;;;;;8.40;97413.00;;;;8364746;28;20231;-67
2022/10/07 01:26:25;;;;;;;9.25;5.40;;;;;8.30;97407.00;;;;8364644;28;20573;-67
2022/10/07 01:30:34;;;;;;;11.33;5.00;;;;;8.30;97404.00;;;;8344549;28;20227;-67
2022/10/07 01:34:40;;;;;;;8.27;5.13;;;;;8.30;97402.00;;;;8364178;28;20343;-67
2022/10/07 01:39:16;;;;;;;11.20;4.90;;;;;8.20;97396.00;;;;8362725;28;20227;-67
2022/10/07 01:43:22;;;;;;;8.67;4.83;;;;;8.20;97394.00;;;;8363259;28;20224;-67
2022/10/07 01:47:59;;;;;;;10.80;5.60;;;;;8.20;97386.00;;;;8364162;28;20231;-67
2022/10/07 01:52:23;;;;;;;8.50;5.30;;;;;8.10;97378.00;;;;8362220;28;20213;-67
2022/10/07 01:56:42;;;;;;;8.83;4.90;;;;;8.10;97375.00;;;;8363955;28;20266;-68
2022/10/07 02:01:08;;;;;;;12.37;5.13;;;;;8.10;97371.00;;;;8363361;28;20279;-68
2022/10/07 02:05:20;;;;;;;7.60;4.73;;;;;8.10;97364.00;;;;8363390;28;20295;-67
2022/10/07 02:09:51;;;;;;;11.57;5.43;;;;;8.00;97363.00;;;;8363185;28;20220;-68
2022/10/07 02:14:00;;;;;;;8.23;4.67;;;;;8.00;97353.00;;;;8362979;28;20638;-67
2022/10/07 02:18:33;;;;;;;10.13;6.22;;;;;8.00;97346.00;;;;8362070;28;20228;-68
2022/10/07 02:22:39;;;;;;;9.47;5.77;;;;;8.10;97349.00;;;;8363059;28;20622;-68
2022/10/07 02:27:12;;;;;;;10.40;4.97;;;;;8.10;97347.00;;;;8362057;28;20217;-67
2022/10/07 02:31:18;;;;;;;8.43;4.83;;;;;8.10;97349.00;;;;8362026;28;20236;-67
2022/10/07 02:35:53;;;;;;;10.37;4.93;;;;;8.00;97337.00;;;;8362329;28;20220;-67
2022/10/07 02:39:59;;;;;;;8.87;4.53;;;;;7.90;97349.00;;;;8362573;28;20227;-67
2022/10/07 02:44:37;;;;;;;10.43;4.90;;;;;7.80;97338.00;;;;8361418;28;20213;-67
2022/10/07 02:48:46;;;;;;;7.87;4.60;;;;;7.80;97334.00;;;;8361946;28;20213;-67
2022/10/07 02:52:51;;;;;;;10.07;4.80;;;;;7.70;97332.00;;;;8361688;28;20240;-67
2022/10/07 02:57:25;;;;;;;9.30;5.00;;;;;7.70;97323.00;;;;8362215;28;20231;-68
2022/10/07 03:01:44;;;;;;;10.93;5.53;;;;;7.70;97328.00;;;;8356776;28;20225;-67
2022/10/07 03:06:06;;;;;;;10.57;4.03;;;;;7.70;97328.00;;;;8360904;28;20613;-67
2022/10/07 03:10:09;;;;;;;10.70;4.83;;;;;7.70;97334.00;;;;8361054;28;20216;-67
2022/10/07 03:14:48;;;;;;;11.63;4.70;;;;;7.60;97326.00;;;;8360587;28;20227;-67
2022/10/07 03:19:00;;;;;;;13.63;4.90;;;;;7.60;97328.00;;;;8361330;28;20270;-67
2022/10/07 03:23:32;;;;;;;9.93;5.03;;;;;7.50;97312.00;;;;8361339;28;20519;-68
2022/10/07 03:27:35;;;;;;;9.70;4.33;;;;;7.50;97311.00;;;;8359398;28;20679;-69
2022/10/07 03:32:13;;;;;;;10.23;6.30;;;;;7.50;97308.00;;;;8360782;28;20228;-67
2022/10/07 03:36:18;;;;;;;7.57;4.47;;;;;7.50;97307.00;;;;8359702;28;20236;-67
2022/10/07 03:40:51;;;;;;;13.53;4.90;;;;;7.40;97310.00;;;;8359232;28;20274;-67
2022/10/07 03:44:54;;;;;;;15.93;4.70;;;;;7.40;97319.00;;;;8359487;28;20216;-67
2022/10/07 03:49:01;;;;;;;6.77;3.90;;;;;7.30;97315.00;;;;8360788;28;20235;-66
2022/10/07 03:53:37;;;;;;;11.23;4.60;;;;;7.20;97312.00;;;;8358127;28;20227;-67
2022/10/07 03:58:12;;;;;;;8.97;4.27;;;;;7.20;97308.00;;;;8360571;28;20224;-66
2022/10/07 04:02:46;;;;;;;264.10;15.90;;;;;7.10;97307.00;;;;8344417;28;20217;-67
2022/10/07 04:07:23;;;;;;;10.47;5.07;;;;;7.00;97310.00;;;;8358946;28;20228;-67
2022/10/07 04:12:02;;;;;;;9.17;4.50;;;;;6.90;97296.00;;;;8359729;28;20634;-66
2022/10/07 04:16:37;;;;;;;13.43;5.40;;;;;6.80;97286.00;;;;8359098;28;20232;-67
2022/10/07 04:21:12;;;;;;;12.50;5.73;;;;;6.90;97286.00;;;;8347421;28;20218;-67
2022/10/07 04:25:49;;;;;;;12.13;5.93;;;;;6.90;97277.00;;;;8359619;28;20274;-66
2022/10/07 04:30:28;;;;;;;8.40;4.80;;;;;6.90;97274.00;;;;8358005;28;22962;-66
2022/10/07 04:35:04;;;;;;;9.10;4.67;;;;;6.90;97270.00;;;;8358544;28;20220;-65
2022/10/07 04:39:38;;;;;;;10.13;5.57;;;;;6.90;97270.00;;;;8359043;28;20223;-67
2022/10/07 04:44:13;;;;;;;7.87;5.60;;;;;6.90;97268.00;;;;8358071;28;20229;-67
2022/10/07 04:48:49;;;;;;;13.93;6.73;;;;;6.90;97257.00;;;;8359531;28;20290;-67
2022/10/07 04:53:23;;;;;;;14.10;6.50;;;;;6.80;97254.00;;;;8360004;28;20216;-66
2022/10/07 04:58:00;;;;;;;12.17;5.77;;;;;6.80;97245.00;;;;8365772;28;20312;-66
2022/10/07 05:02:37;;;;;;;11.30;5.40;;;;;6.90;97243.00;;;;8352872;28;20227;-66
2022/10/07 05:07:17;;;;;;;12.13;5.63;;;;;6.90;97252.00;;;;8364637;28;20613;-66
2022/10/07 05:11:54;;;;;;;10.47;5.47;;;;;6.90;97244.00;;;;8352873;28;20220;-67
2022/10/07 05:15:59;;;;;;;11.33;5.80;;;;;6.90;97253.00;;;;8364346;28;20221;-66
2022/10/07 05:20:03;;;;;;;14.17;5.47;;;;;7.00;97241.00;;;;8362597;28;20220;-66
2022/10/07 05:29:24;;;;;;;12.87;6.27;;;;;7.00;97234.00;;;;8362213;28;20285;-65
2022/10/07 05:33:57;;;;;;;13.03;5.10;;;;;7.00;97239.00;;;;8363544;28;20219;-66
2022/10/07 05:38:35;;;;;;;8.87;5.47;;;;;7.00;97233.00;;;;8363662;28;20227;-65
2022/10/07 05:43:12;;;;;;;13.07;5.33;;;;;7.10;97228.00;;;;8362745;28;20223;-66
2022/10/07 05:47:59;;;;;;;9.20;5.70;;;;;7.10;97227.00;;;;8362544;28;20251;-66
2022/10/07 05:52:38;;;;;;;26.43;15.90;;;;;7.20;97228.00;;;;8363533;28;20247;-66
2022/10/07 05:57:12;;;;;;;13.10;8.53;;;;;7.20;97227.00;;;;8361387;28;20231;-66
2022/10/07 06:01:49;;;;;;;9.80;5.97;;;;;7.30;97214.00;;;;8361810;28;20657;-68
2022/10/07 06:06:26;;;;;;;11.17;5.20;;;;;7.50;97211.00;;;;8361693;28;20247;-66
2022/10/07 06:15:40;;;;;;;9.93;5.50;;;;;8.00;97226.00;;;;8362158;28;20244;-67
2022/10/07 06:20:17;;;;;;;7.83;5.87;;;;;8.20;97234.00;;;;8362143;28;20242;-67
2022/10/07 06:29:38;;;;;;;12.90;5.83;;;;;8.70;97228.00;;;;8361854;28;20598;-66
2022/10/07 06:34:11;;;;;;;10.00;6.00;;;;;9.00;97229.00;;;;8362190;28;20213;-66
2022/10/07 06:38:49;;;;;;;11.27;5.50;;;;;9.20;97238.00;;;;8362129;28;20224;-66
2022/10/07 06:43:23;;;;;;;10.20;4.83;;;;;9.30;97240.00;;;;8361408;28;20274;-66
2022/10/07 06:47:39;;;;;;;12.83;6.30;;;;;9.50;97247.00;;;;8362823;28;20225;-66
2022/10/07 06:52:13;;;;;;;18.67;7.00;;;;;9.70;97242.00;;;;8360140;28;20223;-66
2022/10/07 06:56:50;;;;;;;14.70;6.65;;;;;9.90;97259.00;;;;8361602;28;20220;-66
2022/10/07 07:01:27;;;;;;;12.50;6.03;;;;;10.00;97248.00;;;;8361145;28;20220;-67
2022/10/07 07:06:06;;;;;;;11.43;5.40;;;;;10.20;97252.00;;;;8361671;28;20263;-67
2022/10/07 07:10:41;;;;;;;11.13;6.03;;;;;10.50;97247.00;;;;8360255;28;20217;-68
2022/10/07 07:14:44;;;;;;;14.82;6.43;;;;;10.80;97252.00;;;;8360832;28;20232;-68
2022/10/07 07:19:21;;;;;;;15.68;7.35;;;;;11.00;97247.00;;;;8360481;28;20236;-68
2022/10/07 07:28:41;;;;;;;21.77;7.97;;;;;11.60;97244.00;;;;8361363;28;20223;-68
2022/10/07 07:33:15;;;;;;;11.40;6.60;;;;;11.80;97242.00;;;;8359207;28;20267;-68
2022/10/07 07:37:53;;;;;;;13.77;6.68;;;;;11.90;97253.00;;;;8359899;28;20234;-68
2022/10/07 07:42:30;;;;;;;11.55;6.78;;;;;12.30;97254.00;;;;8357015;28;20222;-69
2022/10/07 07:47:09;;;;;;;12.82;6.28;;;;;12.70;97237.00;;;;8358758;28;20228;-69
2022/10/07 07:51:43;;;;;;;10.43;6.57;;;;;13.20;97238.00;;;;8358334;28;20230;-68
2022/10/07 07:56:20;;;;;;;11.23;6.80;;;;;13.50;97235.00;;;;8360733;28;20630;-70
2022/10/07 08:00:27;;;;;;;15.30;7.13;;;;;13.60;97234.00;;;;8359420;28;20557;-70
2022/10/07 08:05:03;;;;;;;10.23;5.93;;;;;13.70;97224.00;;;;8359950;28;20235;-70
2022/10/07 08:09:37;;;;;;;10.15;6.70;;;;;13.80;97227.00;;;;8360846;28;20232;-70
2022/10/07 08:14:14;;;;;;;7.03;5.32;;;;;14.10;97226.00;;;;8359816;28;20565;-71
2022/10/07 08:18:53;;;;;;;9.48;5.75;;;;;14.40;97231.00;;;;8391821;28;20680;-70
2022/10/07 08:22:58;;;;;;;7.63;5.55;;;;;14.60;97230.00;;;;8393661;28;20215;-71
2022/10/07 08:27:32;;;;;;;12.25;4.90;;;;;14.60;97222.00;;;;8392151;28;20220;-71
2022/10/07 08:32:09;;;;;;;7.22;4.40;;;;;14.60;97217.00;;;;8399151;28;20254;-71
2022/10/07 08:36:48;;;;;;;5.97;4.13;;;;;14.80;97217.00;;;;8397643;28;20555;-71
2022/10/07 08:41:31;;;;;;;10.63;4.43;;;;;15.10;97205.00;;;;8398802;28;20637;-70
2022/10/07 08:46:04;;;;;;;7.35;4.03;;;;;15.30;97203.00;;;;8397471;28;20559;-69
2022/10/07 08:50:42;;;;;;;6.80;4.72;;;;;15.60;97195.00;;;;8398290;28;20223;-70
2022/10/07 08:55:13;;;;;;;6.75;4.47;;;;;15.80;97195.00;;;;8398160;28;20300;-72
2022/10/07 08:59:54;;;;;;;5.95;4.03;;;;;15.90;97189.00;;;;8397119;28;20224;-71
2022/10/07 09:04:31;;;;;;;9.27;4.07;;;;;16.10;97187.00;;;;8397704;28;20227;-71
2022/10/07 09:09:04;;;;;;;8.63;4.70;;;;;16.50;97183.00;;;;8397422;28;20216;-72
2022/10/07 09:13:41;;;;;;;4.32;3.60;;;;;16.80;97183.00;;;;8398230;28;20653;-72
2022/10/07 09:18:20;;;;;;;4.75;3.45;;;;;17.40;97172.00;;;;8397149;28;20224;-71
2022/10/07 09:22:57;;;;;;;7.95;3.50;;;;;17.90;97172.00;;;;8394746;28;20219;-72
2022/10/07 09:32:18;;;;;;;7.25;3.83;;;;;18.80;97160.00;;;;8396148;28;20226;-72
2022/10/07 09:36:52;;;;;;;7.60;3.92;;;;;19.00;97163.00;;;;8397073;28;20227;-72
2022/10/07 09:41:34;;;;;;;4.22;3.67;;;;;19.40;97156.00;;;;8395753;28;20232;-72
2022/10/07 09:46:06;;;;;;;7.88;3.65;;;;;19.90;97153.00;;;;8396623;28;20227;-73
2022/10/07 09:50:40;;;;;;;4.85;3.60;;;;;20.40;97155.00;;;;8396111;28;20615;-72
2022/10/07 09:55:20;;;;;;;10.32;3.67;;;;;20.60;97156.00;;;;8396837;28;20220;-72
2022/10/07 09:59:26;;;;;;;5.88;3.65;;;;;20.60;97162.00;;;;8395786;28;20235;-71
2022/10/07 10:04:00;;;;;;;8.23;3.00;;;;;20.50;97154.00;;;;8396190;28;20220;-72
2022/10/07 10:08:37;;;;;;;6.05;3.78;;;;;20.60;97152.00;;;;8396228;28;20220;-72
2022/10/07 10:13:23;;;;;;;7.15;3.38;;;;;20.90;97143.00;;;;8384046;28;20216;-72
2022/10/07 10:17:53;;;;;;;10.45;3.60;;;;;21.50;97147.00;;;;8393654;28;20227;-71
2022/10/07 10:22:27;;;;;;;9.15;3.50;;;;;22.00;97142.00;;;;8395510;28;20266;-71
2022/10/07 10:27:06;;;;;;;3.65;2.65;;;;;22.40;97135.00;;;;8394143;28;20295;-71
2022/10/07 10:31:21;;;;;;;6.05;3.30;;;;;22.90;97135.00;;;;8395571;28;20538;-71
2022/10/07 10:35:54;;;;;;;8.32;2.65;;;;;23.50;97136.00;;;;8394642;28;20216;-71
2022/10/07 10:40:26;;;;;;;10.15;3.58;;;;;23.50;97116.00;;;;8394471;28;20219;-72
2022/10/07 10:45:06;;;;;;;3.22;2.97;;;;;23.20;97113.00;;;;8395382;28;20568;-70
2022/10/07 10:49:37;;;;;;;5.95;3.00;;;;;23.10;97115.00;;;;8394572;28;20223;-69
2022/10/07 10:54:10;;;;;;;6.38;2.85;;;;;23.40;97106.00;;;;8394128;28;20215;-69
2022/10/07 10:58:26;;;;;;;6.35;2.53;;;;;23.80;97101.00;;;;8394615;28;20228;-69
2022/10/07 11:02:58;;;;;;;4.85;2.45;;;;;24.10;97103.00;;;;8394490;28;20219;-69
2022/10/07 11:07:37;;;;;;;7.47;2.38;;;;;24.30;97096.00;;;;8394180;28;20281;-70
2022/10/07 11:11:43;;;;;;;4.40;2.28;;;;;24.60;97093.00;;;;8394401;28;20223;-69
2022/10/07 11:15:50;;;;;;;3.38;2.28;;;;;24.20;97086.00;;;;8385658;28;20220;-69
2022/10/07 11:19:57;;;;;;;3.10;2.13;;;;;23.90;97085.00;;;;8393341;28;20216;-69
2022/10/07 11:24:09;;;;;;;3.63;2.35;;;;;24.00;97081.00;;;;8394471;28;20219;-69
2022/10/07 11:28:19;;;;;;;5.22;2.10;;;;;24.10;97074.00;;;;8393069;28;20227;-69
2022/10/07 11:32:49;;;;;;;7.38;2.20;;;;;24.10;97066.00;;;;8393654;28;20208;-69
2022/10/07 11:37:01;;;;;;;6.47;2.53;;;;;24.10;97070.00;;;;8393163;28;20211;-69
2022/10/07 11:41:32;;;;;;;4.40;1.95;;;;;24.00;97068.00;;;;8393514;28;20274;-69
2022/10/07 11:46:09;;;;;;;7.53;2.45;;;;;23.90;97064.00;;;;8386719;28;20223;-69
2022/10/07 11:50:19;;;;;;;3.17;2.17;;;;;23.80;97049.00;;;;8393217;28;20220;-69
2022/10/07 11:54:58;;;;;;;3.05;2.20;;;;;23.60;97053.00;;;;8392611;28;20216;-69
2022/10/07 11:59:38;;;;;;;4.00;2.15;;;;;23.80;97031.00;;;;8393263;28;20223;-69
2022/10/07 12:04:23;;;;;;;8.63;2.67;;;;;23.80;97032.00;;;;8395732;28;20218;-69
2022/10/07 12:08:52;;;;;;;4.28;2.95;;;;;23.80;97024.00;;;;8398558;28;20216;-69
2022/10/07 12:13:35;;;;;;;2.40;2.20;;;;;23.80;97015.00;;;;8398737;28;20242;-69
2022/10/07 12:18:09;;;;;;;4.93;2.10;;;;;24.00;97013.00;;;;8399264;28;20219;-69
2022/10/07 12:22:43;;;;;;;5.75;2.10;;;;;24.30;97008.00;;;;8398713;28;20266;-69
2022/10/07 12:27:23;;;;;;;7.28;2.25;;;;;24.40;97001.00;;;;8398553;28;20215;-69
2022/10/07 12:36:42;;;;;;;8.73;2.50;;;;;23.60;96993.00;;;;8398618;28;20238;-69
2022/10/07 12:41:25;;;;;;;5.60;2.30;;;;;24.00;96982.00;;;;8398580;28;20607;-68
2022/10/07 12:46:01;;;;;;;7.45;2.15;;;;;23.90;96975.00;;;;8397559;28;20224;-70
2022/10/07 12:50:37;;;;;;;4.00;2.40;;;;;23.90;96967.00;;;;8398746;28;20220;-70
2022/10/07 12:55:14;;;;;;;4.95;1.90;;;;;23.60;96962.00;;;;8397830;28;20622;-70
2022/10/07 12:59:56;;;;;;;6.65;3.13;;;;;23.50;96963.00;;;;8398239;28;20224;-70
2022/10/07 13:04:36;;;;;;;17.25;2.90;;;;;23.50;96961.00;;;;8397343;28;20216;-70
2022/10/07 13:09:19;;;;;;;7.38;2.53;;;;;23.30;96955.00;;;;8397836;28;20611;-70
2022/10/07 13:13:47;;;;;;;5.57;2.92;;;;;23.00;96955.00;;;;8396501;28;20212;-70
2022/10/07 13:18:17;;;;;;;5.68;2.42;;;;;23.30;96958.00;;;;8398186;28;20227;-70
2022/10/07 13:22:54;;;;;;;7.72;2.53;;;;;23.40;96951.00;;;;8397213;28;20208;-69
2022/10/07 13:27:29;;;;;;;5.22;2.40;;;;;23.40;96942.00;;;;8396853;28;20212;-70
2022/10/07 13:31:33;;;;;;;3.97;2.10;;;;;23.50;96938.00;;;;8387341;28;20665;-70
2022/10/07 13:35:37;;;;;;;5.15;2.05;;;;;23.40;96928.00;;;;8396969;28;20220;-69
2022/10/07 13:40:21;;;;;;;9.52;3.05;;;;;23.00;96916.00;;;;8396558;28;20255;-70
2022/10/07 13:45:00;;;;;;;7.57;2.65;;;;;22.90;96923.00;;;;8397860;28;20580;-69
2022/10/07 13:49:35;;;;;;;5.07;2.33;;;;;23.00;96915.00;;;;8396025;28;20220;-69
2022/10/07 13:54:07;;;;;;;6.45;2.38;;;;;23.00;96907.00;;;;8396630;28;20626;-70
2022/10/07 13:58:43;;;;;;;6.32;2.50;;;;;22.90;96908.00;;;;8396133;28;20561;-69
2022/10/07 14:02:49;;;;;;;7.00;2.25;;;;;22.70;96898.00;;;;8395879;28;20236;-69
2022/10/07 14:07:21;;;;;;;5.28;2.38;;;;;22.60;96893.00;;;;8396170;28;20664;-70
2022/10/07 14:11:24;;;;;;;6.40;2.42;;;;;22.50;96890.00;;;;8395281;28;20235;-70
2022/10/07 14:16:01;;;;;;;4.47;2.47;;;;;22.40;96885.00;;;;8395328;28;20546;-69
2022/10/07 14:20:17;;;;;;;3.95;2.60;;;;;22.10;96884.00;;;;8395502;28;20215;-70
2022/10/07 14:24:21;;;;;;;7.38;2.80;;;;;22.10;96875.00;;;;8395481;28;20567;-70
2022/10/07 14:28:29;;;;;;;8.02;2.63;;;;;22.30;96867.00;;;;8394618;28;20262;-70
2022/10/07 14:37:07;;;;;;;4.25;2.53;;;;;22.70;96867.00;;;;8395183;28;20216;-70
2022/10/07 14:41:11;;;;;;;4.93;2.50;;;;;22.90;96860.00;;;;8395484;28;20244;-70
2022/10/07 14:45:19;;;;;;;9.43;2.75;;;;;23.10;96859.00;;;;8395291;28;20227;-70
2022/10/07 14:49:52;;;;;;;5.65;2.08;;;;;23.10;96850.00;;;;8393240;28;20230;-70
2022/10/07 14:54:04;;;;;;;8.27;2.63;;;;;23.10;96839.00;;;;8394628;28;20212;-70
2022/10/07 14:58:09;;;;;;;5.70;2.55;;;;;23.20;96838.00;;;;8391705;28;20231;-71
2022/10/07 15:02:13;;;;;;;2.85;2.30;;;;;23.00;96840.00;;;;8387575;28;20223;-70
2022/10/07 15:06:50;;;;;;;6.53;2.80;;;;;22.80;96831.00;;;;8394287;28;20661;-70
2022/10/07 15:11:29;;;;;;;4.35;2.17;;;;;22.80;96831.00;;;;8393120;28;20626;-70
2022/10/07 15:16:03;;;;;;;4.80;2.20;;;;;22.60;96828.00;;;;8392343;28;20223;-70
2022/10/07 15:20:40;;;;;;;6.63;2.85;;;;;22.40;96815.00;;;;8392316;28;20322;-70
2022/10/07 15:25:18;;;;;;;6.15;5.35;;;;;22.20;96815.00;;;;8394604;28;20223;-70
2022/10/07 15:29:54;;;;;;;2.58;2.38;;;;;21.90;96812.00;;;;8393207;28;20211;-70
2022/10/07 15:34:28;;;;;;;3.03;2.35;;;;;21.50;96815.00;;;;8388320;28;20216;-70
2022/10/07 15:39:05;;;;;;;3.70;2.50;;;;;21.20;96822.00;;;;8393033;28;20216;-70
2022/10/07 15:43:42;;;;;;;7.13;2.45;;;;;20.90;96812.00;;;;8393141;28;20269;-70
2022/10/07 15:48:21;;;;;;;10.68;3.38;;;;;20.70;96813.00;;;;8393142;28;20277;-70
2022/10/07 15:52:56;;;;;;;8.52;2.90;;;;;20.30;96809.00;;;;8393124;28;20227;-70
2022/10/07 15:56:59;;;;;;;7.30;2.97;;;;;20.00;96799.00;;;;8392829;28;20215;-71
2022/10/07 16:01:36;;;;;;;6.22;2.95;;;;;19.80;96808.00;;;;8392538;28;20224;-71
2022/10/07 16:05:41;;;;;;;13.20;3.30;;;;;19.50;96806.00;;;;8392750;28;20224;-71
2022/10/07 16:10:00;;;;;;;7.63;3.42;;;;;19.10;96807.00;;;;8393482;28;20220;-71
2022/10/07 16:14:04;;;;;;;8.52;3.05;;;;;18.80;96798.00;;;;8393409;28;20223;-71
2022/10/07 16:18:07;;;;;;;12.80;3.22;;;;;18.40;96795.00;;;;8393339;28;20230;-71
2022/10/07 16:22:45;;;;;;;8.77;3.20;;;;;18.10;96789.00;;;;8393367;28;20694;-71
2022/10/07 16:26:50;;;;;;;9.38;2.80;;;;;17.80;96781.00;;;;8392902;28;20549;-71
2022/10/07 16:31:24;;;;;;;5.22;2.70;;;;;17.40;96787.00;;;;8392637;28;20219;-71
2022/10/07 16:35:30;;;;;;;6.53;3.05;;;;;17.00;96779.00;;;;8392274;28;20239;-71
2022/10/07 16:39:34;;;;;;;7.57;3.30;;;;;16.80;96785.00;;;;8392991;28;20273;-71
2022/10/07 16:43:38;;;;;;;7.03;3.13;;;;;16.50;96781.00;;;;8392406;28;20669;-71
2022/10/07 16:47:41;;;;;;;5.68;2.95;;;;;16.30;96784.00;;;;8393067;28;20677;-71
2022/10/07 16:51:45;;;;;;;4.88;2.80;;;;;16.10;96779.00;;;;8399084;28;20308;-71
2022/10/07 16:56:22;;;;;;;4.63;3.60;;;;;15.70;96775.00;;;;8399162;28;20215;-71
2022/10/07 17:00:25;;;;;;;7.88;3.47;;;;;15.60;96777.00;;;;8397910;28;20220;-71
2022/10/07 17:05:02;;;;;;;12.43;3.60;;;;;15.50;96776.00;;;;8399141;28;20234;-71
2022/10/07 17:09:05;;;;;;;5.60;3.88;;;;;15.30;96788.00;;;;8397759;28;20304;-70
2022/10/07 17:13:09;;;;;;;7.70;3.35;;;;;15.00;96773.00;;;;8398691;28;20216;-71
2022/10/07 17:17:43;;;;;;;13.15;4.68;;;;;14.80;96782.00;;;;8398329;28;20224;-71
2022/10/07 17:21:47;;;;;;;9.35;6.30;;;;;14.60;96784.00;;;;8398290;28;20646;-70
2022/10/07 17:25:50;;;;;;;9.85;5.38;;;;;14.30;96782.00;;;;8397776;28;20746;-70
2022/10/07 17:30:30;;;;;;;14.27;6.45;;;;;14.20;96782.00;;;;8398192;28;20223;-71
2022/10/07 17:34:33;;;;;;;10.48;5.25;;;;;14.00;96777.00;;;;8397485;28;20216;-70
2022/10/07 17:38:38;;;;;;;12.80;5.50;;;;;13.90;96770.00;;;;8397175;28;20630;-71
2022/10/07 17:43:12;;;;;;;59.40;14.73;;;;;13.80;96783.00;;;;8397075;28;20277;-72
2022/10/07 17:47:16;;;;;;;27.27;10.40;;;;;13.70;96772.00;;;;8395384;28;20226;-71
2022/10/07 17:51:20;;;;;;;16.65;6.40;;;;;13.50;96771.00;;;;8397590;28;20234;-70
2022/10/07 17:55:24;;;;;;;7.82;5.60;;;;;13.40;96776.00;;;;8396685;28;20235;-70
2022/10/07 18:00:04;;;;;;;12.80;5.72;;;;;13.30;96766.00;;;;8391780;28;20226;-70
2022/10/07 18:04:37;;;;;;;7.85;5.35;;;;;13.10;96765.00;;;;8387409;28;20425;-70
2022/10/07 18:09:18;;;;;;;15.63;6.38;;;;;13.00;96768.00;;;;8395733;28;20536;-70
2022/10/07 18:18:28;;;;;;;15.00;6.90;;;;;12.80;96751.00;;;;8395728;28;20225;-70
2022/10/07 18:23:02;;;;;;;19.60;7.50;;;;;12.70;96750.00;;;;8395191;28;20228;-70
2022/10/07 18:27:44;;;;;;;15.60;7.13;;;;;12.60;96755.00;;;;8395442;28;20216;-70
2022/10/07 18:32:22;;;;;;;23.00;8.50;;;;;12.60;96753.00;;;;8395147;28;20225;-71
2022/10/07 18:36:55;;;;;;;16.98;7.90;;;;;12.50;96743.00;;;;8367915;28;20277;-70
2022/10/07 18:41:33;;;;;;;15.82;7.60;;;;;12.40;96745.00;;;;8394183;28;20310;-70
2022/10/07 18:46:12;;;;;;;17.98;8.48;;;;;12.40;96731.00;;;;8395113;28;20218;-70
2022/10/07 18:50:50;;;;;;;13.00;7.00;;;;;12.40;96739.00;;;;8394960;28;20234;-70
2022/10/07 18:55:27;;;;;;;15.43;7.13;;;;;12.40;96747.00;;;;8395177;28;20220;-70
2022/10/07 19:00:04;;;;;;;13.80;7.28;;;;;12.30;96748.00;;;;8394410;28;20223;-70
2022/10/07 19:04:43;;;;;;;16.67;9.02;;;;;12.20;96744.00;;;;8394445;28;20224;-71
2022/10/07 19:09:17;;;;;;;17.75;8.65;;;;;12.20;96739.00;;;;8393596;28;20261;-71
2022/10/07 19:13:55;;;;;;;15.68;7.35;;;;;12.10;96739.00;;;;8393441;28;20225;-71
2022/10/07 19:18:28;;;;;;;13.50;7.72;;;;;12.00;96734.00;;;;8394298;28;20622;-70
2022/10/07 19:23:08;;;;;;;14.50;8.60;;;;;11.90;96741.00;;;;8394606;28;20224;-70
2022/10/07 19:27:42;;;;;;;15.52;9.05;;;;;11.90;96742.00;;;;8393685;28;20221;-71
2022/10/07 19:32:20;;;;;;;17.25;9.52;;;;;11.80;96731.00;;;;8393091;28;20228;-71
2022/10/07 19:36:58;;;;;;;28.13;10.35;;;;;11.80;96731.00;;;;8393097;28;20564;-71
2022/10/07 19:41:06;;;;;;;24.20;11.75;;;;;11.80;96740.00;;;;8364803;28;20233;-71
2022/10/07 19:45:10;;;;;;;17.65;10.15;;;;;11.80;96734.00;;;;8393360;28;20227;-70
2022/10/07 19:49:13;;;;;;;31.63;13.82;;;;;11.70;96735.00;;;;8392687;28;20263;-71
2022/10/07 19:53:50;;;;;;;25.88;13.88;;;;;11.70;96746.00;;;;8366075;28;20227;-71
2022/10/07 19:58:27;;;;;;;27.98;13.32;;;;;11.70;96749.00;;;;8393595;28;20549;-70
2022/10/07 20:03:04;;;;;;;32.55;14.45;;;;;11.60;96750.00;;;;8392976;28;20244;-71
2022/10/07 20:07:08;;;;;;;32.38;16.08;;;;;11.60;96753.00;;;;8365889;28;20218;-70
2022/10/07 20:11:43;;;;;;;39.72;16.50;;;;;11.60;96749.00;;;;8392668;28;20663;-71
2022/10/07 20:15:46;;;;;;;43.10;17.95;;;;;11.60;96750.00;;;;8393084;28;20557;-71
2022/10/07 20:20:23;;;;;;;36.10;17.23;;;;;11.60;96746.00;;;;8392952;28;20231;-71
2022/10/07 20:25:00;;;;;;;43.40;18.45;;;;;11.50;96745.00;;;;8396321;28;20231;-71
2022/10/07 20:29:55;;;;;;;50.28;18.77;;;;;11.50;96751.00;;;;8399667;28;20687;-71
2022/10/07 20:34:00;;;;;;;38.53;17.90;;;;;11.50;96747.00;;;;8397805;28;20218;-71
2022/10/07 20:38:03;;;;;;;49.70;18.20;;;;;11.50;96749.00;;;;8400114;28;20224;-71
2022/10/07 20:42:40;;;;;;;48.45;18.67;;;;;11.40;96746.00;;;;8398812;28;20248;-71
2022/10/07 20:47:18;;;;;;;52.95;20.17;;;;;11.30;96733.00;;;;8398796;28;20215;-71
2022/10/07 20:51:56;;;;;;;66.55;20.70;;;;;11.30;96735.00;;;;8398768;28;20235;-70
2022/10/07 20:56:31;;;;;;;53.75;19.60;;;;;11.20;96722.00;;;;8398875;28;20245;-71
2022/10/07 21:01:05;;;;;;;55.65;21.23;;;;;11.20;96721.00;;;;8397670;28;20612;-70
2022/10/07 21:05:44;;;;;;;69.70;23.10;;;;;11.20;96716.00;;;;8397443;28;20231;-70
2022/10/07 21:10:17;;;;;;;76.85;24.25;;;;;11.20;96711.00;;;;8398686;28;20208;-70
2022/10/07 21:14:21;;;;;;;61.25;21.45;;;;;11.10;96716.00;;;;8397686;28;20265;-70
2022/10/07 21:18:25;;;;;;;72.55;24.00;;;;;11.10;96712.00;;;;8398329;28;20221;-70
2022/10/07 21:23:01;;;;;;;59.92;25.05;;;;;11.20;96711.00;;;;8397977;28;20228;-70
2022/10/07 21:27:06;;;;;;;74.60;27.75;;;;;11.30;96706.00;;;;8398245;28;20569;-70
2022/10/07 21:31:16;;;;;;;78.07;28.50;;;;;11.40;96710.00;;;;8370173;28;20218;-70
2022/10/07 21:35:19;;;;;;;74.35;28.38;;;;;11.50;96701.00;;;;8397519;28;20239;-70
2022/10/07 21:39:25;;;;;;;81.32;27.88;;;;;11.50;96699.00;;;;8397326;28;20220;-70
2022/10/07 21:43:28;;;;;;;113.32;30.20;;;;;11.60;96698.00;;;;8397486;28;20243;-70
2022/10/07 21:47:31;;;;;;;111.18;34.22;;;;;11.50;96688.00;;;;8397689;28;20553;-70
2022/10/07 21:52:08;;;;;;;121.20;34.78;;;;;11.60;96693.00;;;;8397106;28;21335;-70
2022/10/07 21:56:13;;;;;;;73.57;27.00;;;;;11.50;96689.00;;;;8397400;28;20222;-70
2022/10/07 22:00:47;;;;;;;66.47;25.55;;;;;11.40;96698.00;;;;8396163;28;20861;-69
2022/10/07 22:04:50;;;;;;;358.05;38.38;;;;;11.30;96687.00;;;;8396096;28;20220;-71
2022/10/07 22:08:54;;;;;;;372.70;34.50;;;;;11.20;96692.00;;;;8395931;28;20561;-69
2022/10/07 22:13:31;;;;;;;187.55;29.60;;;;;11.10;96687.00;;;;8396609;28;20605;-69
2022/10/07 22:17:35;;;;;;;119.75;28.95;;;;;11.00;96685.00;;;;8395495;28;20593;-69
2022/10/07 22:22:12;;;;;;;196.48;25.67;;;;;10.90;96672.00;;;;8396178;28;20224;-69
2022/10/07 22:26:15;;;;;;;230.68;26.23;;;;;10.70;96663.00;;;;8395160;28;20219;-69
2022/10/07 22:30:53;;;;;;;105.68;24.27;;;;;10.60;96658.00;;;;8395732;28;20646;-69
2022/10/07 22:39:23;;;;;;;758.05;51.40;;;;;10.40;96662.00;;;;8374646;28;20213;-69
2022/10/07 22:43:26;;;;;;;153.98;29.30;;;;;10.30;96650.00;;;;8394892;28;20227;-69